Time;durP1;ratioP1;P1;durP2;ratioP2;P2;SDS_P1;SDS_P2;PMS_P1;PMS_P2;Temp;Humidity;BMP_temperature;BMP_pressure;BME280_temperature;BME280_humidity;BME280_pressure;Samples;Min_cycle;Max_cycle;Signal;HPM_P1;HPM_P2
2021/05/09 00:00:23;;;;;;;28.23;20.15;;;8.60;99.90;;;;;;5012812;28;20088;-79
2021/05/09 00:02:49;;;;;;;36.80;21.10;;;8.60;99.90;;;;;;5010535;28;20037;-79
2021/05/09 00:05:15;;;;;;;35.08;22.33;;;8.70;99.90;;;;;;5008446;28;20441;-79
2021/05/09 00:07:41;;;;;;;36.33;20.83;;;8.70;99.90;;;;;;5011816;28;20026;-79
2021/05/09 00:10:10;;;;;;;31.48;19.52;;;8.70;99.90;;;;;;5012613;28;20026;-78
2021/05/09 00:12:36;;;;;;;32.92;18.92;;;8.80;99.90;;;;;;5012700;28;20086;-78
2021/05/09 00:15:03;;;;;;;29.92;19.40;;;8.80;99.90;;;;;;5010569;28;20033;-78
2021/05/09 00:17:29;;;;;;;35.05;19.38;;;8.80;99.90;;;;;;5012542;28;20041;-78
2021/05/09 00:19:54;;;;;;;28.17;19.38;;;8.80;99.90;;;;;;5002621;28;20044;-78
2021/05/09 00:22:20;;;;;;;33.30;19.60;;;8.80;99.90;;;;;;5006175;28;20038;-78
2021/05/09 00:24:45;;;;;;;27.77;18.85;;;8.80;99.90;;;;;;5011677;28;20095;-79
2021/05/09 00:27:11;;;;;;;28.75;17.83;;;8.80;99.90;;;;;;5011129;28;20025;-79
2021/05/09 00:29:36;;;;;;;31.55;18.13;;;8.80;99.90;;;;;;5012259;28;20432;-78
2021/05/09 00:32:02;;;;;;;32.08;18.25;;;8.90;99.90;;;;;;5009904;28;20095;-78
2021/05/09 00:34:28;;;;;;;26.35;18.25;;;8.90;99.90;;;;;;5010806;28;20042;-78
2021/05/09 00:36:54;;;;;;;24.65;17.40;;;8.90;99.90;;;;;;5012055;28;20503;-79
2021/05/09 00:39:19;;;;;;;25.27;17.08;;;8.90;99.90;;;;;;5010897;28;20038;-78
2021/05/09 00:41:45;;;;;;;28.48;17.60;;;8.90;99.90;;;;;;5012149;28;20038;-78
2021/05/09 00:44:10;;;;;;;27.27;16.90;;;8.90;99.90;;;;;;5011430;28;20018;-79
2021/05/09 00:46:36;;;;;;;24.35;16.08;;;8.90;99.90;;;;;;5010556;28;20022;-79
2021/05/09 00:49:02;;;;;;;21.80;16.30;;;8.90;99.90;;;;;;5011734;28;20058;-78
2021/05/09 00:51:28;;;;;;;28.42;17.20;;;9.00;99.90;;;;;;5010400;28;20113;-79
2021/05/09 00:53:56;;;;;;;29.10;17.00;;;9.00;99.90;;;;;;5010218;28;20455;-79
2021/05/09 00:56:24;;;;;;;27.25;17.35;;;9.00;99.90;;;;;;5011814;28;20486;-78
2021/05/09 00:58:52;;;;;;;27.85;15.82;;;9.00;99.90;;;;;;5011094;28;20025;-79
2021/05/09 01:01:18;;;;;;;29.27;16.95;;;9.00;99.90;;;;;;5009721;28;20037;-79
2021/05/09 01:03:46;;;;;;;28.35;16.35;;;9.00;99.90;;;;;;5010094;28;20026;-79
2021/05/09 01:06:12;;;;;;;23.73;16.45;;;9.00;99.90;;;;;;5010831;28;20034;-79
2021/05/09 01:08:38;;;;;;;27.15;15.48;;;9.10;99.90;;;;;;5010171;28;20103;-79
2021/05/09 01:11:04;;;;;;;24.33;15.88;;;9.10;99.90;;;;;;5011772;28;20056;-79
2021/05/09 01:13:31;;;;;;;30.60;16.42;;;9.10;99.90;;;;;;5009978;28;20018;-79
2021/05/09 01:15:57;;;;;;;23.92;17.25;;;9.10;99.90;;;;;;5011060;28;20383;-79
2021/05/09 01:18:22;;;;;;;23.98;16.15;;;9.10;99.90;;;;;;5011805;28;20025;-79
2021/05/09 01:20:48;;;;;;;27.25;15.48;;;9.10;99.90;;;;;;5010480;28;20087;-78
2021/05/09 01:23:13;;;;;;;22.67;14.75;;;9.10;99.90;;;;;;5009768;28;20506;-78
2021/05/09 01:25:39;;;;;;;23.20;14.93;;;9.10;99.90;;;;;;5010937;28;20025;-78
2021/05/09 01:28:06;;;;;;;24.63;14.80;;;9.10;99.90;;;;;;5011463;28;20493;-78
2021/05/09 01:30:31;;;;;;;25.75;16.30;;;9.20;99.90;;;;;;5010605;28;20034;-78
2021/05/09 01:32:57;;;;;;;23.50;15.63;;;9.20;99.90;;;;;;5010565;28;20057;-79
2021/05/09 01:35:23;;;;;;;23.95;14.93;;;9.10;99.90;;;;;;5009391;28;20038;-78
2021/05/09 01:37:48;;;;;;;31.10;16.98;;;9.20;99.90;;;;;;5009139;28;20236;-79
2021/05/09 01:40:14;;;;;;;22.30;14.27;;;9.20;99.90;;;;;;5011457;28;20454;-79
2021/05/09 01:42:40;;;;;;;26.63;15.77;;;9.20;99.90;;;;;;5011282;28;20029;-78
2021/05/09 01:45:08;;;;;;;24.77;15.65;;;9.20;99.90;;;;;;5010791;28;20482;-78
2021/05/09 01:47:36;;;;;;;27.60;15.82;;;9.30;99.90;;;;;;5009336;28;20577;-78
2021/05/09 01:50:04;;;;;;;22.92;16.15;;;9.40;99.90;;;;;;5011237;28;20021;-78
2021/05/09 01:52:30;;;;;;;27.05;15.30;;;9.40;99.90;;;;;;5008068;28;20030;-78
2021/05/09 01:54:55;;;;;;;25.25;15.75;;;9.50;99.90;;;;;;5010596;28;20072;-78
2021/05/09 01:57:21;;;;;;;24.75;14.15;;;9.60;99.90;;;;;;5011383;28;20042;-78
2021/05/09 01:59:46;;;;;;;25.83;15.88;;;9.70;99.90;;;;;;5012034;28;20033;-78
2021/05/09 02:02:12;;;;;;;39.38;16.75;;;9.80;99.90;;;;;;5014240;28;20125;-78
2021/05/09 02:04:37;;;;;;;29.30;16.08;;;9.90;99.90;;;;;;5013441;28;20032;-78
2021/05/09 02:07:03;;;;;;;22.58;14.48;;;10.10;99.90;;;;;;5011896;28;20033;-78
2021/05/09 02:09:28;;;;;;;23.77;14.38;;;10.20;99.90;;;;;;5013056;28;20083;-78
2021/05/09 02:11:54;;;;;;;23.60;13.98;;;10.30;99.90;;;;;;5014843;28;20040;-78
2021/05/09 02:14:19;;;;;;;23.70;13.30;;;10.40;99.90;;;;;;5013858;28;20030;-78
2021/05/09 02:16:45;;;;;;;24.60;12.75;;;10.50;99.90;;;;;;5014719;28;20044;-78
2021/05/09 02:19:11;;;;;;;25.63;12.73;;;10.60;99.90;;;;;;5014033;28;20072;-78
2021/05/09 02:21:36;;;;;;;17.67;12.52;;;10.70;99.90;;;;;;5013528;28;20040;-78
2021/05/09 02:24:02;;;;;;;20.60;11.50;;;10.80;99.90;;;;;;5011766;28;20033;-78
2021/05/09 02:26:27;;;;;;;19.90;12.13;;;10.80;99.90;;;;;;5014559;28;20030;-78
2021/05/09 02:28:53;;;;;;;18.45;11.98;;;10.80;99.90;;;;;;5014331;28;20097;-79
2021/05/09 02:31:19;;;;;;;20.80;12.13;;;10.80;99.90;;;;;;5013744;28;20060;-78
2021/05/09 02:33:44;;;;;;;24.13;11.88;;;10.90;99.90;;;;;;5012821;28;20030;-78
2021/05/09 02:36:10;;;;;;;24.25;11.25;;;10.90;99.90;;;;;;5013053;28;20061;-78
2021/05/09 02:38:35;;;;;;;29.20;11.48;;;10.90;99.90;;;;;;5012880;28;20026;-78
2021/05/09 02:41:01;;;;;;;20.63;11.15;;;10.90;99.90;;;;;;5014192;28;20481;-78
2021/05/09 02:43:26;;;;;;;27.25;12.25;;;11.00;99.90;;;;;;5014106;28;20030;-78
2021/05/09 02:45:52;;;;;;;24.00;11.02;;;11.00;99.90;;;;;;5013631;28;20137;-78
2021/05/09 02:48:17;;;;;;;15.43;11.75;;;10.90;99.90;;;;;;5013397;28;20030;-78
2021/05/09 02:50:43;;;;;;;19.33;11.88;;;10.90;99.90;;;;;;5019069;28;20088;-78
2021/05/09 02:53:08;;;;;;;24.00;12.63;;;10.90;99.90;;;;;;5012348;28;20049;-78
2021/05/09 02:55:34;;;;;;;32.35;13.77;;;11.00;99.90;;;;;;5011912;28;20394;-79
2021/05/09 02:57:59;;;;;;;27.48;11.70;;;10.90;99.90;;;;;;5014003;28;20029;-78
2021/05/09 03:00:25;;;;;;;19.33;12.18;;;10.90;99.90;;;;;;5013925;28;20026;-78
2021/05/09 03:02:51;;;;;;;34.08;13.63;;;11.00;99.90;;;;;;5011409;28;20034;-78
2021/05/09 03:05:16;;;;;;;18.95;11.55;;;11.00;99.90;;;;;;5012050;28;20118;-78
2021/05/09 03:07:42;;;;;;;22.00;11.70;;;11.00;99.90;;;;;;5012284;28;20041;-78
2021/05/09 03:10:08;;;;;;;24.05;11.65;;;11.10;99.90;;;;;;5013360;28;20022;-78
2021/05/09 03:12:33;;;;;;;28.77;12.98;;;11.10;99.90;;;;;;5013641;28;20390;-78
2021/05/09 03:14:59;;;;;;;19.92;11.40;;;11.10;99.90;;;;;;5013016;28;20034;-78
2021/05/09 03:17:24;;;;;;;18.77;12.10;;;11.10;99.90;;;;;;5013603;28;20037;-78
2021/05/09 03:19:50;;;;;;;23.85;10.85;;;11.10;99.90;;;;;;5012697;28;20121;-78
2021/05/09 03:22:16;;;;;;;32.50;13.90;;;11.10;99.90;;;;;;5012601;28;20032;-79
2021/05/09 03:24:42;;;;;;;20.00;10.95;;;11.10;99.90;;;;;;5012530;28;20069;-78
2021/05/09 03:27:07;;;;;;;20.60;11.82;;;11.20;99.90;;;;;;5013569;28;20061;-78
2021/05/09 03:29:33;;;;;;;22.10;13.02;;;11.20;99.90;;;;;;5013294;28;20029;-79
2021/05/09 03:31:58;;;;;;;20.45;11.05;;;11.20;99.90;;;;;;5013373;28;20061;-78
2021/05/09 03:34:24;;;;;;;20.05;11.93;;;11.20;99.90;;;;;;5009738;28;20490;-78
2021/05/09 03:36:49;;;;;;;21.08;10.93;;;11.10;99.90;;;;;;5013385;28;20048;-78
2021/05/09 03:39:15;;;;;;;20.83;11.13;;;11.20;99.90;;;;;;5012224;28;20116;-78
2021/05/09 03:41:41;;;;;;;25.65;11.85;;;11.20;99.90;;;;;;5013268;28;20045;-78
2021/05/09 03:44:06;;;;;;;24.65;12.27;;;11.20;99.90;;;;;;5012447;28;20025;-78
2021/05/09 03:46:32;;;;;;;25.83;11.65;;;11.20;99.90;;;;;;5012880;28;20029;-78
2021/05/09 03:48:58;;;;;;;26.23;12.45;;;11.10;99.90;;;;;;5013159;28;20380;-78
2021/05/09 03:51:23;;;;;;;22.10;11.40;;;11.10;99.90;;;;;;5012335;28;20048;-78
2021/05/09 03:53:49;;;;;;;21.80;11.73;;;11.00;99.90;;;;;;5009178;28;20045;-78
2021/05/09 03:56:14;;;;;;;22.67;11.60;;;11.10;99.90;;;;;;5012840;28;20034;-78
2021/05/09 03:58:40;;;;;;;31.27;11.75;;;11.00;99.90;;;;;;5011580;28;20034;-78
2021/05/09 04:01:05;;;;;;;19.70;11.15;;;11.00;99.90;;;;;;5012867;28;20034;-78
2021/05/09 04:03:32;;;;;;;18.00;10.73;;;11.10;99.90;;;;;;5009930;28;20022;-78
2021/05/09 04:05:58;;;;;;;20.92;10.27;;;11.00;99.90;;;;;;5012197;28;20034;-78
2021/05/09 04:08:26;;;;;;;20.13;12.40;;;11.00;99.90;;;;;;5019566;28;20025;-78
2021/05/09 04:10:54;;;;;;;21.55;11.82;;;11.00;99.90;;;;;;5012610;28;20022;-78
2021/05/09 04:13:20;;;;;;;14.18;10.98;;;11.00;99.90;;;;;;5012616;28;20014;-78
2021/05/09 04:15:46;;;;;;;24.70;10.55;;;11.10;99.90;;;;;;5011938;28;20029;-78
2021/05/09 04:18:12;;;;;;;19.92;10.63;;;11.20;99.90;;;;;;5009012;28;20022;-79
2021/05/09 04:20:38;;;;;;;16.92;9.75;;;11.20;99.90;;;;;;5012575;28;20026;-79
2021/05/09 04:23:15;;;;;;;16.52;9.25;;;11.20;99.90;;;;;;5010731;28;20037;-78
2021/05/09 04:25:46;;;;;;;21.23;10.10;;;11.30;99.90;;;;;;5011820;28;20479;-78
2021/05/09 04:28:11;;;;;;;17.63;10.82;;;11.30;99.90;;;;;;5012361;28;20029;-78
2021/05/09 04:30:37;;;;;;;20.33;10.80;;;11.30;99.90;;;;;;5011727;28;20675;-79
2021/05/09 04:33:05;;;;;;;14.32;9.40;;;11.30;99.90;;;;;;5011542;28;20108;-78
2021/05/09 04:35:31;;;;;;;20.08;10.30;;;11.30;99.90;;;;;;5010133;28;20112;-79
2021/05/09 04:37:57;;;;;;;21.98;10.43;;;11.30;99.90;;;;;;5011470;28;20022;-78
2021/05/09 04:40:23;;;;;;;19.92;10.60;;;11.40;99.90;;;;;;5010880;28;20030;-78
2021/05/09 04:42:49;;;;;;;19.48;9.68;;;11.40;99.90;;;;;;5012089;28;20382;-79
2021/05/09 04:45:15;;;;;;;20.10;10.30;;;11.50;99.90;;;;;;5011375;28;20032;-79
2021/05/09 04:47:42;;;;;;;22.00;10.20;;;11.50;99.90;;;;;;5012231;28;20025;-79
2021/05/09 04:50:08;;;;;;;30.65;11.60;;;11.50;99.90;;;;;;5011389;28;20022;-78
2021/05/09 04:52:34;;;;;;;14.73;10.02;;;11.60;99.90;;;;;;5010312;28;20033;-79
2021/05/09 04:55:00;;;;;;;24.67;10.63;;;11.70;99.90;;;;;;5009571;28;20509;-79
2021/05/09 04:57:25;;;;;;;17.48;10.80;;;11.60;99.90;;;;;;5011942;28;20029;-79
2021/05/09 04:59:51;;;;;;;17.08;11.30;;;11.50;99.90;;;;;;5010675;28;20087;-78
2021/05/09 05:02:16;;;;;;;12.38;9.85;;;11.40;99.90;;;;;;5009641;28;20029;-79
2021/05/09 05:04:43;;;;;;;18.77;9.73;;;11.40;99.90;;;;;;5009695;28;20025;-79
2021/05/09 05:07:08;;;;;;;12.23;9.15;;;11.50;99.90;;;;;;5008428;28;20045;-79
2021/05/09 05:09:34;;;;;;;18.75;10.35;;;11.50;99.90;;;;;;5009939;28;20475;-79
2021/05/09 05:11:59;;;;;;;25.13;9.95;;;11.60;99.90;;;;;;5011972;28;20037;-79
2021/05/09 05:14:25;;;;;;;13.77;8.88;;;11.80;99.90;;;;;;5009777;28;20474;-79
2021/05/09 05:16:51;;;;;;;14.40;7.72;;;12.00;99.90;;;;;;5009505;28;20026;-79
2021/05/09 05:19:16;;;;;;;22.35;8.82;;;12.10;99.90;;;;;;5011098;28;20029;-79
2021/05/09 05:21:42;;;;;;;14.52;8.32;;;12.30;99.90;;;;;;5010889;28;20041;-79
2021/05/09 05:24:10;;;;;;;12.02;7.85;;;12.30;99.90;;;;;;5007727;28;20037;-79
2021/05/09 05:26:36;;;;;;;16.40;8.38;;;12.40;99.90;;;;;;5011475;28;20096;-79
2021/05/09 05:29:02;;;;;;;15.45;8.70;;;12.60;99.90;;;;;;5011575;28;20482;-79
2021/05/09 05:31:27;;;;;;;20.23;8.90;;;12.70;99.90;;;;;;5010978;28;20475;-80
2021/05/09 05:33:53;;;;;;;14.27;7.85;;;12.80;99.90;;;;;;5011501;28;20546;-80
2021/05/09 05:36:18;;;;;;;15.15;8.48;;;12.80;99.90;;;;;;5006871;28;20713;-79
2021/05/09 05:38:44;;;;;;;15.73;7.70;;;12.90;99.90;;;;;;5013186;28;20041;-80
2021/05/09 05:41:10;;;;;;;11.13;7.72;;;12.90;99.90;;;;;;5015255;28;20030;-80
2021/05/09 05:43:35;;;;;;;14.63;7.85;;;13.00;99.90;;;;;;5014916;28;20471;-80
2021/05/09 05:46:03;;;;;;;11.48;7.38;;;13.00;99.90;;;;;;5014982;28;20057;-80
2021/05/09 05:48:29;;;;;;;13.25;7.93;;;13.10;99.90;;;;;;5014575;28;20026;-80
2021/05/09 05:50:56;;;;;;;14.45;7.05;;;13.10;99.90;;;;;;5014646;28;20025;-80
2021/05/09 05:53:23;;;;;;;10.70;6.22;;;13.30;99.90;;;;;;5013009;28;20494;-80
2021/05/09 05:55:50;;;;;;;16.15;7.97;;;13.30;99.90;;;;;;5013120;28;20409;-80
2021/05/09 05:58:17;;;;;;;20.10;8.52;;;13.40;99.90;;;;;;5030329;28;20478;-80
2021/05/09 06:00:43;;;;;;;14.70;7.13;;;13.50;99.90;;;;;;5013588;28;20502;-80
2021/05/09 06:03:09;;;;;;;11.20;7.22;;;13.50;99.90;;;;;;5013725;28;20104;-80
2021/05/09 06:05:34;;;;;;;10.98;6.80;;;13.50;99.90;;;;;;5013390;28;20871;-80
2021/05/09 06:08:00;;;;;;;14.35;6.80;;;13.50;99.90;;;;;;5012650;28;20107;-80
2021/05/09 06:10:25;;;;;;;16.13;6.40;;;13.70;99.90;;;;;;5014560;28;20018;-80
2021/05/09 06:12:54;;;;;;;11.85;6.32;;;13.70;99.90;;;;;;5014787;28;20038;-80
2021/05/09 06:15:19;;;;;;;13.25;6.55;;;13.90;99.90;;;;;;5014082;28;20116;-80
2021/05/09 06:17:45;;;;;;;14.90;7.45;;;13.90;99.90;;;;;;5014701;28;20122;-80
2021/05/09 06:20:11;;;;;;;17.15;7.28;;;14.10;99.90;;;;;;5013823;28;20038;-80
2021/05/09 06:22:37;;;;;;;9.50;6.28;;;14.10;99.90;;;;;;5008872;28;20026;-80
2021/05/09 06:25:04;;;;;;;13.35;6.13;;;14.20;99.90;;;;;;5012417;28;20500;-80
2021/05/09 06:27:30;;;;;;;13.73;6.43;;;14.20;99.90;;;;;;5014509;28;20022;-81
2021/05/09 06:29:55;;;;;;;12.23;5.97;;;14.20;99.90;;;;;;5014361;28;20032;-80
2021/05/09 06:32:21;;;;;;;14.15;6.32;;;14.40;99.90;;;;;;5013769;28;20030;-81
2021/05/09 06:34:46;;;;;;;16.27;7.40;;;14.40;99.90;;;;;;5012948;28;20088;-80
2021/05/09 06:37:13;;;;;;;16.73;6.55;;;14.50;99.90;;;;;;5012748;28;20084;-82
2021/05/09 06:39:39;;;;;;;13.75;6.28;;;14.60;99.90;;;;;;5013935;28;20033;-82
2021/05/09 06:42:06;;;;;;;8.27;5.75;;;14.60;99.90;;;;;;5014332;28;20108;-82
2021/05/09 06:44:34;;;;;;;12.73;7.05;;;14.70;99.90;;;;;;5012815;28;20021;-81
2021/05/09 06:47:01;;;;;;;16.27;6.80;;;14.80;99.90;;;;;;5014242;28;20552;-81
2021/05/09 06:49:28;;;;;;;11.32;6.03;;;14.90;99.90;;;;;;5014195;28;20048;-81
2021/05/09 06:51:55;;;;;;;9.55;5.72;;;15.00;99.90;;;;;;5011596;28;20069;-80
2021/05/09 06:54:21;;;;;;;20.48;7.13;;;15.20;99.90;;;;;;5012263;28;20080;-81
2021/05/09 06:56:51;;;;;;;12.95;5.95;;;15.10;99.90;;;;;;5012814;28;20026;-81
2021/05/09 06:59:18;;;;;;;13.13;7.20;;;15.20;99.90;;;;;;5012795;28;20433;-80
2021/05/09 07:01:44;;;;;;;20.23;6.90;;;15.40;99.90;;;;;;5012622;28;20026;-81
2021/05/09 07:04:10;;;;;;;12.60;6.05;;;15.50;99.90;;;;;;5012815;28;20038;-80
2021/05/09 07:06:35;;;;;;;12.30;5.63;;;15.60;99.90;;;;;;5013057;28;20037;-81
2021/05/09 07:09:10;;;;;;;12.50;6.38;;;15.70;99.90;;;;;;5012693;28;20030;-81
2021/05/09 07:11:37;;;;;;;12.23;5.70;;;15.70;99.90;;;;;;4994297;28;20406;-80
2021/05/09 07:14:04;;;;;;;13.75;6.03;;;15.70;99.90;;;;;;5000260;28;20033;-81
2021/05/09 07:16:30;;;;;;;11.43;6.40;;;15.80;99.90;;;;;;5013700;28;20033;-81
2021/05/09 07:18:56;;;;;;;12.35;6.30;;;15.90;99.90;;;;;;5013617;28;20018;-80
2021/05/09 07:21:30;;;;;;;14.32;6.03;;;16.20;99.90;;;;;;5012726;28;20517;-80
2021/05/09 07:23:56;;;;;;;14.40;6.15;;;16.20;99.90;;;;;;5011803;28;20038;-80
2021/05/09 07:26:21;;;;;;;8.98;5.78;;;16.30;99.90;;;;;;5013318;28;20092;-80
2021/05/09 07:28:47;;;;;;;14.63;6.95;;;16.30;99.90;;;;;;5013484;28;20486;-80
2021/05/09 07:31:16;;;;;;;11.52;6.05;;;16.50;99.90;;;;;;5011934;28;20057;-80
2021/05/09 07:33:42;;;;;;;12.48;6.15;;;16.70;99.90;;;;;;5014308;28;20058;-81
2021/05/09 07:36:07;;;;;;;8.27;5.03;;;17.00;99.90;;;;;;5009130;28;20081;-80
2021/05/09 07:38:33;;;;;;;9.52;5.55;;;17.20;99.90;;;;;;5010813;28;20044;-81
2021/05/09 07:40:59;;;;;;;9.20;4.80;;;17.30;99.90;;;;;;5013042;28;20449;-80
2021/05/09 07:43:25;;;;;;;16.88;5.30;;;17.30;99.90;;;;;;5012884;28;20037;-80
2021/05/09 07:45:50;;;;;;;10.23;5.38;;;17.10;99.90;;;;;;5012512;28;20026;-80
2021/05/09 07:48:16;;;;;;;8.05;5.70;;;17.00;99.90;;;;;;5012176;28;20044;-80
2021/05/09 07:50:42;;;;;;;10.05;5.20;;;17.20;99.90;;;;;;5012452;28;20104;-80
2021/05/09 07:53:09;;;;;;;14.90;5.57;;;17.20;99.90;;;;;;5001377;28;20025;-81
2021/05/09 07:55:35;;;;;;;12.50;6.07;;;17.50;99.90;;;;;;5005259;28;20040;-80
2021/05/09 07:58:00;;;;;;;10.27;5.38;;;17.40;99.90;;;;;;5000607;28;20266;-81
2021/05/09 08:00:26;;;;;;;10.85;5.35;;;17.60;99.90;;;;;;4996390;28;20517;-80
2021/05/09 08:02:52;;;;;;;9.20;5.00;;;17.80;99.90;;;;;;5008701;28;20463;-80
2021/05/09 08:05:21;;;;;;;12.20;5.75;;;17.70;99.90;;;;;;5026590;28;20068;-79
2021/05/09 08:07:55;;;;;;;14.27;5.45;;;17.70;99.90;;;;;;5010992;28;20048;-79
2021/05/09 08:10:21;;;;;;;9.35;5.55;;;17.70;99.90;;;;;;5002959;28;20386;-80
2021/05/09 08:12:48;;;;;;;8.48;4.88;;;17.80;99.90;;;;;;5012605;28;20032;-80
2021/05/09 08:15:15;;;;;;;10.15;5.32;;;18.10;99.90;;;;;;5011880;28;20025;-80
2021/05/09 08:17:46;;;;;;;8.98;4.47;;;18.00;99.90;;;;;;5086640;27;20368;-81
2021/05/09 08:20:13;;;;;;;7.45;4.90;;;18.20;99.90;;;;;;5087315;28;20036;-80
2021/05/09 08:22:38;;;;;;;9.52;5.28;;;18.00;99.90;;;;;;5081990;28;20035;-80
2021/05/09 08:25:07;;;;;;;9.38;5.05;;;18.10;99.90;;;;;;5064328;28;20096;-80
2021/05/09 08:27:34;;;;;;;10.18;4.68;;;18.40;99.90;;;;;;5088982;28;20097;-80
2021/05/09 08:30:01;;;;;;;9.65;5.18;;;18.50;99.90;;;;;;5072269;28;20025;-80
2021/05/09 08:32:27;;;;;;;7.43;4.85;;;18.50;99.90;;;;;;5067206;28;20120;-79
2021/05/09 08:34:58;;;;;;;7.75;4.80;;;18.70;99.90;;;;;;5081375;28;20430;-79
2021/05/09 08:37:24;;;;;;;8.68;4.93;;;18.80;99.90;;;;;;5067182;28;20024;-78
2021/05/09 08:39:49;;;;;;;10.93;5.30;;;18.80;99.90;;;;;;5056972;28;20392;-79
2021/05/09 08:42:16;;;;;;;6.90;4.55;;;18.80;99.90;;;;;;5068401;28;20029;-77
2021/05/09 08:44:46;;;;;;;9.43;4.30;;;18.90;99.90;;;;;;5079896;28;20032;-77
2021/05/09 08:47:14;;;;;;;15.55;5.30;;;19.00;99.90;;;;;;5071069;28;20075;-77
2021/05/09 08:49:41;;;;;;;9.43;4.68;;;19.10;99.90;;;;;;5075040;28;20064;-77
2021/05/09 08:52:08;;;;;;;9.20;4.60;;;19.10;99.90;;;;;;5076081;28;20081;-77
2021/05/09 08:54:34;;;;;;;11.05;4.30;;;19.40;99.90;;;;;;5057879;28;20114;-77
2021/05/09 08:57:02;;;;;;;13.85;4.60;;;19.50;99.90;;;;;;5088142;28;20032;-77
2021/05/09 08:59:28;;;;;;;7.53;4.45;;;19.50;99.90;;;;;;5060248;28;20096;-77
2021/05/09 09:01:55;;;;;;;15.60;5.35;;;19.50;99.90;;;;;;5056431;28;20544;-78
2021/05/09 09:04:20;;;;;;;13.70;5.13;;;19.80;99.90;;;;;;5059108;28;20117;-78
2021/05/09 09:06:46;;;;;;;15.77;4.80;;;19.70;99.90;;;;;;5062014;28;20108;-78
2021/05/09 09:09:28;;;;;;;9.13;4.68;;;19.80;99.90;;;;;;5051579;28;20374;-76
2021/05/09 09:11:56;;;;;;;8.85;4.40;;;19.90;99.90;;;;;;5088014;28;20138;-77
2021/05/09 09:14:25;;;;;;;12.63;4.40;;;20.00;99.90;;;;;;5077493;28;20025;-77
2021/05/09 09:17:07;;;;;;;8.88;3.97;;;19.90;99.90;;;;;;5067392;28;20117;-77
2021/05/09 09:19:33;;;;;;;8.75;4.00;;;20.10;99.90;;;;;;5066444;28;20111;-77
2021/05/09 09:21:59;;;;;;;6.47;4.13;;;20.40;99.90;;;;;;5068506;28;20112;-77
2021/05/09 09:24:25;;;;;;;7.50;3.95;;;20.20;99.90;;;;;;5055194;28;20562;-77
2021/05/09 09:26:52;;;;;;;5.70;3.42;;;20.20;99.90;;;;;;5046943;28;20430;-77
2021/05/09 09:29:29;;;;;;;9.90;3.70;;;20.20;99.90;;;;;;5051746;28;20081;-76
2021/05/09 09:32:08;;;;;;;7.90;3.60;;;20.40;99.90;;;;;;5067428;28;20086;-76
2021/05/09 09:34:50;;;;;;;8.27;3.60;;;20.60;99.90;;;;;;5070372;28;20039;-76
2021/05/09 09:37:20;;;;;;;15.48;4.53;;;20.70;99.90;;;;;;5054427;28;20051;-76
2021/05/09 09:39:59;;;;;;;8.70;3.40;;;20.80;99.90;;;;;;5047770;28;20021;-77
2021/05/09 09:42:45;;;;;;;9.73;3.92;;;20.70;99.90;;;;;;5057428;28;20030;-77
2021/05/09 09:45:15;;;;;;;8.10;4.18;;;20.80;99.90;;;;;;5065953;28;20016;-77
2021/05/09 09:47:51;;;;;;;14.95;3.75;;;20.90;99.90;;;;;;5054673;28;20068;-76
2021/05/09 09:50:38;;;;;;;13.40;3.40;;;21.20;99.90;;;;;;5073114;28;20028;-77
2021/05/09 09:53:28;;;;;;;7.35;3.40;;;21.30;99.90;;;;;;5050353;28;20424;-77
2021/05/09 09:56:21;;;;;;;9.70;3.50;;;21.30;99.90;;;;;;5077347;28;20025;-76
2021/05/09 09:58:50;;;;;;;7.03;3.22;;;21.40;99.90;;;;;;5066609;28;20032;-75
2021/05/09 10:01:21;;;;;;;10.43;2.58;;;21.40;99.90;;;;;;5047819;28;20019;-74
2021/05/09 10:03:47;;;;;;;9.90;2.70;;;21.50;99.90;;;;;;5069155;28;20037;-74
2021/05/09 10:06:13;;;;;;;5.35;3.38;;;21.50;99.90;;;;;;5072407;28;20047;-75
2021/05/09 10:08:39;;;;;;;10.90;3.20;;;21.50;99.90;;;;;;5051261;28;20025;-75
2021/05/09 10:11:06;;;;;;;6.90;3.35;;;21.50;99.90;;;;;;5065186;28;20024;-75
2021/05/09 10:13:34;;;;;;;7.78;2.88;;;21.60;99.90;;;;;;5083053;22;20586;-90
2021/05/09 10:16:01;;;;;;;7.13;3.30;;;21.70;99.90;;;;;;5054225;28;20036;-91
2021/05/09 10:18:27;;;;;;;11.65;3.80;;;21.70;99.90;;;;;;5055092;28;20021;-92
2021/05/09 10:20:54;;;;;;;11.18;3.47;;;21.70;99.90;;;;;;5054138;28;20082;-88
2021/05/09 10:23:20;;;;;;;12.13;3.67;;;22.00;99.90;;;;;;5048904;28;20022;-90
2021/05/09 10:25:50;;;;;;;6.25;2.70;;;22.00;99.90;;;;;;5034220;28;20057;-92
2021/05/09 10:28:35;;;;;;;10.93;3.50;;;22.00;99.90;;;;;;5034796;28;20029;-90
2021/05/09 10:31:01;;;;;;;7.35;2.88;;;22.10;99.90;;;;;;5033459;28;20029;-90
2021/05/09 10:33:40;;;;;;;6.60;3.13;;;22.20;99.90;;;;;;5034136;28;20371;-90
2021/05/09 10:36:31;;;;;;;9.73;2.65;;;22.40;99.90;;;;;;5032275;28;20037;-90
2021/05/09 10:39:11;;;;;;;7.60;3.10;;;22.70;99.90;;;;;;5018981;28;20025;-85
2021/05/09 10:42:03;;;;;;;8.27;2.35;;;22.50;99.90;;;;;;5024032;28;20040;-87
2021/05/09 10:44:40;;;;;;;12.85;2.65;;;22.80;99.90;;;;;;5026451;28;20025;-85
2021/05/09 10:47:07;;;;;;;5.15;2.38;;;23.10;99.90;;;;;;5027053;28;20029;-86
2021/05/09 10:49:33;;;;;;;4.80;2.30;;;23.20;99.90;;;;;;5025226;28;20033;-86
2021/05/09 10:52:37;;;;;;;8.48;2.47;;;23.10;99.90;;;;;;5027399;28;20092;-86
2021/05/09 10:55:03;;;;;;;8.93;3.00;;;23.00;99.90;;;;;;5026720;28;20025;-85
2021/05/09 10:57:47;;;;;;;5.38;2.53;;;23.00;99.90;;;;;;5032799;28;20136;-85
2021/05/09 11:00:12;;;;;;;3.03;2.08;;;23.10;99.90;;;;;;5032724;28;20022;-86
2021/05/09 11:02:38;;;;;;;9.57;2.42;;;23.40;99.90;;;;;;5032938;28;20041;-84
2021/05/09 11:05:04;;;;;;;4.22;2.38;;;23.50;99.90;;;;;;5027827;28;20052;-83
2021/05/09 11:07:43;;;;;;;4.25;1.92;;;23.30;99.90;;;;;;5031113;28;20135;-84
2021/05/09 11:10:34;;;;;;;3.35;1.70;;;23.20;99.90;;;;;;5031293;28;20025;-87
2021/05/09 11:13:09;;;;;;;5.72;1.92;;;23.10;99.90;;;;;;5031200;28;20473;-85
2021/05/09 11:15:35;;;;;;;7.03;2.38;;;23.20;99.90;;;;;;5030435;28;20041;-85
2021/05/09 11:18:12;;;;;;;5.85;1.77;;;23.00;99.90;;;;;;5030700;28;20026;-84
2021/05/09 11:20:51;;;;;;;5.35;2.30;;;23.10;99.90;;;;;;5032261;28;20029;-85
2021/05/09 11:23:17;;;;;;;3.47;1.80;;;22.90;99.90;;;;;;5030483;28;20028;-83
2021/05/09 11:25:42;;;;;;;5.50;2.25;;;22.90;99.90;;;;;;5030694;28;20021;-85
2021/05/09 11:28:08;;;;;;;9.35;2.40;;;23.10;99.90;;;;;;5032325;28;20032;-84
2021/05/09 11:30:37;;;;;;;4.25;2.15;;;23.00;99.90;;;;;;5030487;28;20029;-83
2021/05/09 11:33:03;;;;;;;5.53;2.05;;;23.00;99.90;;;;;;5021014;28;20391;-85
2021/05/09 11:35:39;;;;;;;4.97;2.35;;;23.30;99.90;;;;;;5021776;28;20057;-88
2021/05/09 11:38:15;;;;;;;8.27;2.00;;;23.10;99.90;;;;;;5026222;28;20362;-86
2021/05/09 11:40:41;;;;;;;4.13;1.73;;;23.40;99.90;;;;;;5027692;28;20095;-89
2021/05/09 11:43:12;;;;;;;8.20;2.35;;;23.60;99.90;;;;;;5028726;28;20048;-87
2021/05/09 11:45:37;;;;;;;5.38;1.70;;;23.90;99.90;;;;;;5028193;28;20026;-87
2021/05/09 11:48:03;;;;;;;3.65;1.80;;;23.80;99.90;;;;;;5030230;28;20028;-88
2021/05/09 11:50:29;;;;;;;4.63;2.10;;;23.70;99.90;;;;;;5026933;28;20025;-86
2021/05/09 11:52:55;;;;;;;5.55;1.63;;;23.90;99.90;;;;;;5025608;28;20026;-84
2021/05/09 11:55:22;;;;;;;6.15;1.73;;;23.80;99.90;;;;;;5026294;28;20030;-87
2021/05/09 11:57:47;;;;;;;8.35;1.65;;;24.00;99.90;;;;;;5023641;28;20117;-86
2021/05/09 12:00:17;;;;;;;4.90;1.30;;;24.00;99.90;;;;;;5027374;28;20085;-88
2021/05/09 12:02:47;;;;;;;6.05;1.67;;;24.00;99.90;;;;;;5021629;28;20029;-86
2021/05/09 12:05:14;;;;;;;5.72;1.90;;;23.30;99.90;;;;;;5024649;28;20516;-83
2021/05/09 12:07:51;;;;;;;4.65;2.17;;;23.10;99.90;;;;;;5026758;28;20048;-87
2021/05/09 12:10:17;;;;;;;8.00;2.47;;;22.80;99.90;;;;;;5023951;28;20021;-86
2021/05/09 12:12:45;;;;;;;7.60;2.00;;;22.50;99.90;;;;;;5027547;28;20033;-89
2021/05/09 12:15:16;;;;;;;3.90;1.98;;;22.30;99.90;;;;;;5028273;28;20033;-89
2021/05/09 12:17:47;;;;;;;10.15;1.73;;;22.10;99.90;;;;;;5029843;28;20061;-84
2021/05/09 12:20:24;;;;;;;3.75;2.00;;;21.90;99.90;;;;;;5023674;28;20509;-85
2021/05/09 12:22:50;;;;;;;6.75;2.20;;;21.60;99.90;;;;;;5024474;28;20029;-86
2021/05/09 12:25:27;;;;;;;6.70;1.90;;;21.40;99.90;;;;;;5039780;28;20067;-87
2021/05/09 12:27:52;;;;;;;7.60;2.28;;;21.30;99.90;;;;;;5027032;28;20029;-88
2021/05/09 12:30:18;;;;;;;5.43;2.15;;;21.20;99.90;;;;;;5027969;28;20573;-87
2021/05/09 12:32:44;;;;;;;6.60;2.53;;;21.10;99.90;;;;;;5027152;28;20025;-90
2021/05/09 12:35:36;;;;;;;7.07;2.03;;;21.00;99.90;;;;;;5027482;28;20032;-91
2021/05/09 12:38:40;;;;;;;8.35;2.60;;;21.00;99.90;;;;;;5027840;28;20060;-90
2021/05/09 12:41:17;;;;;;;9.70;2.42;;;20.90;99.90;;;;;;5025757;28;20526;-88